Time;durP1;ratioP1;P1;durP2;ratioP2;P2;SDS_P1;SDS_P2;PMS_P1;PMS_P2;Temp;Humidity;BMP_temperature;BMP_pressure;BME280_temperature;BME280_humidity;BME280_pressure;Samples;Min_cycle;Max_cycle;Signal;HPM_P1;HPM_P2
2022/10/09 00:01:32;;;;;;;5.57;3.10;;;13.90;99.90;;;;;;7390124;19;20138;-80
2022/10/09 00:03:58;;;;;;;6.40;3.20;;;13.90;99.90;;;;;;7390496;19;20154;-80
2022/10/09 00:06:28;;;;;;;4.77;3.40;;;13.80;99.90;;;;;;7390060;19;20161;-80
2022/10/09 00:08:53;;;;;;;7.18;3.47;;;13.80;99.90;;;;;;7388597;19;20203;-80
2022/10/09 00:11:23;;;;;;;6.10;3.20;;;13.60;99.90;;;;;;7389347;19;20142;-79
2022/10/09 00:13:49;;;;;;;6.17;3.67;;;13.70;99.90;;;;;;7389908;19;20150;-79
2022/10/09 00:16:16;;;;;;;6.20;3.30;;;13.50;99.90;;;;;;7389096;19;20159;-80
2022/10/09 00:18:43;;;;;;;7.75;3.92;;;13.60;99.90;;;;;;7388876;19;20143;-80
2022/10/09 00:21:30;;;;;;;6.93;3.30;;;13.60;99.90;;;;;;7390607;19;20612;-80
2022/10/09 00:23:58;;;;;;;5.27;2.90;;;13.40;99.90;;;;;;7387670;19;20138;-79
2022/10/09 00:26:27;;;;;;;8.97;3.13;;;13.20;99.90;;;;;;7390529;19;20142;-78
2022/10/09 00:28:54;;;;;;;5.07;3.15;;;13.40;99.90;;;;;;7388620;19;20742;-80
2022/10/09 00:31:20;;;;;;;8.13;3.50;;;13.50;99.90;;;;;;7389516;19;20149;-79
2022/10/09 00:33:46;;;;;;;5.87;3.87;;;13.50;99.90;;;;;;7390102;19;20158;-79
2022/10/09 00:36:18;;;;;;;7.82;4.00;;;13.40;99.90;;;;;;7390747;19;20548;-78
2022/10/09 00:38:43;;;;;;;8.00;3.90;;;13.60;99.90;;;;;;7386798;19;20149;-79
2022/10/09 00:41:14;;;;;;;7.07;3.90;;;13.50;99.90;;;;;;7390097;19;20151;-80
2022/10/09 00:43:42;;;;;;;5.63;3.72;;;13.50;99.90;;;;;;7388128;19;20650;-79
2022/10/09 00:46:35;;;;;;;6.60;3.90;;;13.60;99.90;;;;;;7388409;19;20150;-78
2022/10/09 00:49:06;;;;;;;9.00;3.70;;;13.50;99.90;;;;;;7386005;19;20630;-80
2022/10/09 00:51:33;;;;;;;5.67;3.57;;;13.50;99.90;;;;;;7387808;19;20135;-79
2022/10/09 00:54:01;;;;;;;4.80;3.40;;;13.50;99.90;;;;;;7387745;19;20169;-80
2022/10/09 00:56:27;;;;;;;7.37;3.63;;;13.50;99.90;;;;;;7388019;19;20145;-80
2022/10/09 00:58:56;;;;;;;5.53;3.63;;;13.50;99.90;;;;;;7385263;19;20138;-80
2022/10/09 01:01:22;;;;;;;6.17;3.30;;;13.50;99.90;;;;;;7390664;19;20141;-79
2022/10/09 01:03:47;;;;;;;8.27;3.47;;;13.50;99.90;;;;;;7385543;19;20150;-78
2022/10/09 01:06:19;;;;;;;8.07;3.93;;;13.50;99.90;;;;;;7385765;19;20171;-79
2022/10/09 01:08:44;;;;;;;6.47;3.50;;;13.30;99.90;;;;;;7388973;19;20214;-79
2022/10/09 01:11:28;;;;;;;5.57;3.30;;;13.20;99.90;;;;;;7388252;19;20142;-79
2022/10/09 01:14:20;;;;;;;7.23;3.47;;;13.20;99.90;;;;;;7389072;19;20134;-78
2022/10/09 01:17:18;;;;;;;6.07;3.35;;;13.20;99.90;;;;;;7385427;19;20171;-79
2022/10/09 01:19:47;;;;;;;7.57;3.67;;;13.30;99.90;;;;;;7386493;19;20236;-79
2022/10/09 01:22:29;;;;;;;6.43;3.38;;;13.30;99.90;;;;;;7387248;19;20142;-79
2022/10/09 01:25:04;;;;;;;5.40;3.63;;;13.30;99.90;;;;;;7386105;19;20167;-78
2022/10/09 01:27:32;;;;;;;6.17;3.40;;;13.30;99.90;;;;;;7389170;19;20145;-79
2022/10/09 01:30:05;;;;;;;6.82;3.42;;;13.30;99.90;;;;;;7387566;19;20167;-79
2022/10/09 01:32:35;;;;;;;5.47;3.30;;;13.20;99.90;;;;;;7386774;19;20163;-81
2022/10/09 01:35:05;;;;;;;4.97;3.27;;;13.20;99.90;;;;;;7382157;19;20149;-80
2022/10/09 01:37:33;;;;;;;6.03;3.63;;;13.10;99.90;;;;;;7386603;19;20206;-79
2022/10/09 01:40:01;;;;;;;6.20;2.80;;;13.20;99.90;;;;;;7387965;19;20146;-78
2022/10/09 01:42:28;;;;;;;4.90;3.23;;;13.30;99.90;;;;;;7386523;19;20204;-80
2022/10/09 01:44:54;;;;;;;5.70;2.83;;;13.20;99.90;;;;;;7386631;19;20138;-80
2022/10/09 01:47:20;;;;;;;4.43;3.00;;;13.20;99.90;;;;;;7387492;19;20236;-80
2022/10/09 01:50:08;;;;;;;4.87;2.83;;;13.10;99.90;;;;;;7385241;19;20210;-79
2022/10/09 01:52:48;;;;;;;5.30;3.30;;;13.10;99.90;;;;;;7385901;19;20147;-80
2022/10/09 01:55:37;;;;;;;4.20;2.80;;;13.00;99.90;;;;;;7385494;19;20219;-80
2022/10/09 01:58:06;;;;;;;6.90;3.10;;;12.90;99.90;;;;;;7383535;19;20151;-78
2022/10/09 02:00:36;;;;;;;6.27;3.20;;;12.70;99.90;;;;;;7386669;19;20165;-79
2022/10/09 02:03:06;;;;;;;8.77;3.10;;;12.70;99.90;;;;;;7385939;19;20150;-79
2022/10/09 02:05:32;;;;;;;4.77;2.93;;;12.70;99.90;;;;;;7385029;19;20161;-79
2022/10/09 02:07:58;;;;;;;3.70;2.90;;;12.90;99.90;;;;;;7385963;19;20167;-79
2022/10/09 02:10:25;;;;;;;5.17;3.30;;;12.90;99.90;;;;;;7388847;19;20162;-80
2022/10/09 02:12:57;;;;;;;5.87;3.03;;;12.90;99.90;;;;;;7391058;19;20169;-79
2022/10/09 02:15:29;;;;;;;4.72;3.08;;;12.90;99.90;;;;;;7393501;19;20573;-78
2022/10/09 02:18:01;;;;;;;3.80;2.97;;;13.10;99.90;;;;;;7394473;19;20190;-79
2022/10/09 02:20:33;;;;;;;4.95;3.30;;;12.80;99.90;;;;;;7395929;19;20217;-79
2022/10/09 02:23:05;;;;;;;4.50;2.75;;;12.90;99.90;;;;;;7395404;19;20168;-79
2022/10/09 02:25:31;;;;;;;7.33;3.20;;;12.80;99.90;;;;;;7394039;19;20142;-78
2022/10/09 02:27:57;;;;;;;5.70;3.27;;;12.70;99.90;;;;;;7392411;19;20146;-80
2022/10/09 02:30:26;;;;;;;3.65;2.92;;;12.90;99.90;;;;;;7394805;19;20161;-79
2022/10/09 02:32:53;;;;;;;7.55;3.40;;;12.80;99.90;;;;;;7393031;19;20135;-79
2022/10/09 02:35:19;;;;;;;7.47;3.43;;;12.70;99.90;;;;;;7394572;19;20142;-79
2022/10/09 02:37:45;;;;;;;6.90;2.97;;;12.80;99.90;;;;;;7392520;19;20319;-79
2022/10/09 02:40:11;;;;;;;6.50;2.90;;;12.70;99.90;;;;;;7390799;19;20194;-80
2022/10/09 02:42:37;;;;;;;5.80;3.30;;;12.60;99.90;;;;;;7392442;19;20168;-79
2022/10/09 02:45:03;;;;;;;5.57;3.10;;;12.60;99.90;;;;;;7390344;19;20480;-79
2022/10/09 02:47:28;;;;;;;4.57;3.20;;;12.20;99.90;;;;;;7392169;19;20158;-79
2022/10/09 02:49:55;;;;;;;5.13;3.00;;;12.50;99.90;;;;;;7391727;19;20624;-78
2022/10/09 02:52:21;;;;;;;6.93;4.07;;;12.50;99.90;;;;;;7393360;19;20726;-79
2022/10/09 02:54:47;;;;;;;6.30;3.30;;;12.50;99.90;;;;;;7390351;19;20126;-79
2022/10/09 02:57:12;;;;;;;5.00;3.25;;;12.60;99.90;;;;;;7386395;19;20146;-79
2022/10/09 02:59:38;;;;;;;3.87;2.70;;;12.70;99.90;;;;;;7384290;19;20127;-81
2022/10/09 03:02:04;;;;;;;4.50;3.00;;;12.80;99.90;;;;;;7390356;19;20155;-79
2022/10/09 03:04:29;;;;;;;3.57;2.60;;;12.80;99.90;;;;;;7387892;19;20167;-79
2022/10/09 03:06:55;;;;;;;6.57;3.13;;;12.80;99.90;;;;;;7389950;19;20203;-79
2022/10/09 03:09:21;;;;;;;5.30;3.00;;;12.70;99.90;;;;;;7391037;19;20158;-79
2022/10/09 03:11:47;;;;;;;5.53;2.90;;;12.70;99.90;;;;;;7390143;19;20135;-78
2022/10/09 03:14:12;;;;;;;4.13;2.90;;;12.20;99.90;;;;;;7391420;19;20145;-79
2022/10/09 03:16:38;;;;;;;6.33;3.10;;;12.40;99.90;;;;;;7391896;19;20189;-80
2022/10/09 03:19:04;;;;;;;8.90;3.10;;;12.30;99.90;;;;;;7390570;19;20145;-79
2022/10/09 03:21:30;;;;;;;5.47;2.60;;;12.40;99.90;;;;;;7391941;19;20520;-79
2022/10/09 03:23:55;;;;;;;5.07;3.40;;;12.50;99.90;;;;;;7390333;19;20149;-80
2022/10/09 03:26:24;;;;;;;5.20;3.00;;;12.30;99.90;;;;;;7391554;19;20145;-78
2022/10/09 03:28:51;;;;;;;5.10;2.80;;;12.40;99.90;;;;;;7391180;19;20161;-80
2022/10/09 03:31:19;;;;;;;6.57;3.10;;;12.50;99.90;;;;;;7392768;19;20130;-78
2022/10/09 03:33:45;;;;;;;5.33;3.13;;;12.40;99.90;;;;;;7385744;19;20149;-79
2022/10/09 03:36:11;;;;;;;8.13;2.87;;;12.40;99.90;;;;;;7392250;19;20131;-80
2022/10/09 03:38:37;;;;;;;9.03;3.20;;;12.50;99.90;;;;;;7391006;19;20148;-79
2022/10/09 03:41:04;;;;;;;5.93;3.10;;;12.50;99.90;;;;;;7388634;19;20161;-79
2022/10/09 03:43:30;;;;;;;6.47;2.90;;;12.50;99.90;;;;;;7389733;19;20142;-79
2022/10/09 03:45:56;;;;;;;4.43;2.97;;;12.50;99.90;;;;;;7389359;19;20139;-80
2022/10/09 03:48:22;;;;;;;5.80;3.07;;;12.60;99.90;;;;;;7387968;19;20270;-81
2022/10/09 03:50:48;;;;;;;6.13;2.80;;;12.50;99.90;;;;;;7389146;19;20149;-79
2022/10/09 03:53:14;;;;;;;4.63;3.27;;;12.40;99.90;;;;;;7391075;19;20505;-80
2022/10/09 03:55:41;;;;;;;5.73;2.70;;;12.30;99.90;;;;;;7391003;19;20198;-80
2022/10/09 03:58:07;;;;;;;6.47;2.83;;;12.30;99.90;;;;;;7380929;19;20222;-79
2022/10/09 04:00:34;;;;;;;4.70;2.77;;;12.30;99.90;;;;;;7389553;19;20222;-79
2022/10/09 04:03:00;;;;;;;4.13;2.77;;;12.30;99.90;;;;;;7387876;19;20185;-78
2022/10/09 04:05:26;;;;;;;5.03;2.73;;;12.40;99.90;;;;;;7389331;19;20162;-79
2022/10/09 04:07:51;;;;;;;5.30;2.70;;;12.30;99.90;;;;;;7392017;19;20138;-79
2022/10/09 04:10:17;;;;;;;4.67;3.37;;;12.30;99.90;;;;;;7389413;19;20303;-79
2022/10/09 04:12:43;;;;;;;7.20;3.03;;;12.30;99.90;;;;;;7390745;19;20163;-78
2022/10/09 04:15:09;;;;;;;7.10;2.93;;;12.30;99.90;;;;;;7389585;19;20635;-79
2022/10/09 04:17:35;;;;;;;4.93;2.77;;;12.20;99.90;;;;;;7387704;19;20162;-79
2022/10/09 04:20:02;;;;;;;3.87;2.73;;;12.30;99.90;;;;;;7387636;19;21009;-80
2022/10/09 04:22:27;;;;;;;7.37;3.10;;;12.30;99.90;;;;;;7389821;19;20135;-79
2022/10/09 04:24:53;;;;;;;5.63;3.03;;;12.10;99.90;;;;;;7388305;19;20508;-79
2022/10/09 04:27:19;;;;;;;4.10;2.77;;;12.00;99.90;;;;;;7388403;19;20146;-79
2022/10/09 04:29:45;;;;;;;6.33;3.27;;;12.00;99.90;;;;;;7389017;19;20145;-80
2022/10/09 04:32:10;;;;;;;4.97;3.10;;;12.00;99.90;;;;;;7387770;19;20139;-79
2022/10/09 04:34:36;;;;;;;5.00;2.63;;;12.10;99.90;;;;;;7386162;19;20139;-78
2022/10/09 04:37:02;;;;;;;5.63;2.70;;;12.10;99.90;;;;;;7388414;19;20194;-79
2022/10/09 04:39:28;;;;;;;4.37;2.70;;;12.10;99.90;;;;;;7386853;19;20161;-80
2022/10/09 04:41:54;;;;;;;4.97;2.87;;;12.10;99.90;;;;;;7390195;19;20142;-80
2022/10/09 04:44:19;;;;;;;4.23;2.80;;;12.10;99.90;;;;;;7388068;19;20135;-79
2022/10/09 04:46:45;;;;;;;5.00;3.10;;;12.10;99.90;;;;;;7382221;19;20135;-79
2022/10/09 04:49:12;;;;;;;4.87;2.80;;;12.00;99.90;;;;;;7389877;19;20741;-79
2022/10/09 04:51:38;;;;;;;3.20;2.30;;;12.00;99.90;;;;;;7388461;19;20131;-78
2022/10/09 04:54:04;;;;;;;4.80;3.00;;;12.00;99.90;;;;;;7387636;19;20146;-79
2022/10/09 04:56:30;;;;;;;4.63;3.00;;;12.00;99.90;;;;;;7390351;19;20123;-78
2022/10/09 04:58:56;;;;;;;4.43;2.93;;;12.20;99.90;;;;;;7389260;19;20142;-80
2022/10/09 05:01:24;;;;;;;3.77;2.60;;;12.00;99.90;;;;;;7388196;19;20142;-79
2022/10/09 05:03:50;;;;;;;3.80;2.50;;;11.90;99.90;;;;;;7387615;19;20250;-79
2022/10/09 05:06:18;;;;;;;3.60;2.77;;;11.80;99.90;;;;;;7385304;19;20166;-79
2022/10/09 05:08:44;;;;;;;4.23;2.50;;;11.90;99.90;;;;;;7387214;19;20269;-79
2022/10/09 05:11:18;;;;;;;4.30;2.53;;;12.00;99.90;;;;;;7387477;19;20174;-78
2022/10/09 05:13:47;;;;;;;5.37;2.40;;;11.90;99.90;;;;;;7388207;19;20133;-79
2022/10/09 05:16:16;;;;;;;3.90;2.93;;;11.70;99.90;;;;;;7389474;19;20572;-77
2022/10/09 05:18:47;;;;;;;4.13;3.00;;;11.80;99.90;;;;;;7385758;19;20615;-80
2022/10/09 05:21:14;;;;;;;5.87;2.60;;;11.80;99.90;;;;;;7388412;19;20163;-80
2022/10/09 05:23:40;;;;;;;4.47;2.77;;;11.90;99.90;;;;;;7390186;19;20134;-79
2022/10/09 05:26:09;;;;;;;5.37;2.83;;;11.90;99.90;;;;;;7385509;19;20606;-78
2022/10/09 05:28:35;;;;;;;3.40;2.37;;;11.90;99.90;;;;;;7385468;19;20150;-79
2022/10/09 05:31:05;;;;;;;5.37;2.80;;;11.80;99.90;;;;;;7386831;19;20141;-79
2022/10/09 05:33:32;;;;;;;4.87;2.97;;;11.80;99.90;;;;;;7386757;19;20152;-79
2022/10/09 05:36:01;;;;;;;5.47;2.43;;;11.90;99.90;;;;;;7386523;19;20135;-80
2022/10/09 05:38:27;;;;;;;4.77;2.50;;;11.80;99.90;;;;;;7386458;19;20154;-80
2022/10/09 05:40:58;;;;;;;2.40;2.20;;;11.90;99.90;;;;;;7386110;19;20488;-79
2022/10/09 05:43:26;;;;;;;5.17;2.83;;;11.90;99.90;;;;;;7388344;19;20158;-80
2022/10/09 05:45:53;;;;;;;4.50;2.47;;;11.70;99.90;;;;;;7382888;19;20146;-79
2022/10/09 05:48:19;;;;;;;6.37;2.73;;;11.70;99.90;;;;;;7386574;19;20134;-81
2022/10/09 05:50:45;;;;;;;4.33;2.63;;;11.80;99.90;;;;;;7384656;19;20620;-79
2022/10/09 05:53:11;;;;;;;4.03;2.40;;;11.80;99.90;;;;;;7385375;19;20150;-79
2022/10/09 05:55:37;;;;;;;3.00;2.50;;;11.80;99.90;;;;;;7386534;19;20144;-79
2022/10/09 05:58:03;;;;;;;3.63;2.40;;;11.80;99.90;;;;;;7384043;19;20150;-79
2022/10/09 06:00:29;;;;;;;4.67;2.63;;;11.80;99.90;;;;;;7386030;19;20158;-79
2022/10/09 06:02:55;;;;;;;6.00;3.00;;;11.90;99.90;;;;;;7385628;19;20495;-79
2022/10/09 06:05:20;;;;;;;3.20;2.43;;;11.80;99.90;;;;;;7379567;19;20246;-79
2022/10/09 06:07:46;;;;;;;6.37;2.50;;;11.70;99.90;;;;;;7387514;19;20131;-79
2022/10/09 06:10:12;;;;;;;4.27;2.60;;;11.80;99.90;;;;;;7385214;19;20206;-79
2022/10/09 06:12:38;;;;;;;6.40;2.60;;;11.70;99.90;;;;;;7386496;19;20214;-79
2022/10/09 06:15:05;;;;;;;4.50;2.90;;;11.70;99.90;;;;;;7388030;19;20227;-79
2022/10/09 06:17:32;;;;;;;3.63;2.50;;;11.70;99.90;;;;;;7387030;19;20146;-79
2022/10/09 06:19:58;;;;;;;4.87;2.47;;;11.20;99.90;;;;;;7385044;19;20134;-78
2022/10/09 06:22:23;;;;;;;4.10;2.40;;;11.30;99.90;;;;;;7385908;19;20133;-79
2022/10/09 06:24:49;;;;;;;4.77;2.50;;;11.60;99.90;;;;;;7385089;19;20150;-80
2022/10/09 06:27:15;;;;;;;4.30;2.67;;;11.60;99.90;;;;;;7384840;19;20151;-80
2022/10/09 06:29:40;;;;;;;4.67;3.00;;;11.70;99.90;;;;;;7384860;19;20633;-79
2022/10/09 06:32:06;;;;;;;4.37;2.70;;;11.70;99.90;;;;;;7385652;19;20159;-79
2022/10/09 06:34:32;;;;;;;5.97;2.80;;;11.70;99.90;;;;;;7381996;19;20213;-79
2022/10/09 06:36:58;;;;;;;4.83;2.67;;;11.70;99.90;;;;;;7381086;19;20504;-79
2022/10/09 06:39:25;;;;;;;4.47;2.43;;;11.60;99.90;;;;;;7380961;19;20218;-79
2022/10/09 06:41:51;;;;;;;6.47;2.90;;;11.70;99.90;;;;;;7382123;19;20185;-77
2022/10/09 06:44:17;;;;;;;3.87;2.87;;;11.50;99.90;;;;;;7381430;19;20651;-78
2022/10/09 06:46:44;;;;;;;4.83;2.43;;;11.60;99.90;;;;;;7382260;19;20146;-77
2022/10/09 06:49:10;;;;;;;2.70;2.33;;;11.50;99.90;;;;;;7379800;19;20146;-77
2022/10/09 06:51:37;;;;;;;4.50;2.60;;;11.60;99.90;;;;;;7380006;19;20475;-78
2022/10/09 06:54:12;;;;;;;5.70;2.90;;;11.70;99.90;;;;;;7381177;19;20671;-78
2022/10/09 06:56:37;;;;;;;4.73;2.67;;;11.80;99.90;;;;;;7380870;19;20142;-79
2022/10/09 06:59:05;;;;;;;3.93;2.67;;;11.80;99.90;;;;;;7387212;19;20216;-79
2022/10/09 07:01:31;;;;;;;3.77;2.43;;;11.70;99.90;;;;;;7388202;19;20146;-78
2022/10/09 07:04:00;;;;;;;5.10;3.40;;;11.80;99.90;;;;;;7386614;19;20639;-78
2022/10/09 07:06:28;;;;;;;3.13;2.77;;;11.70;99.90;;;;;;7386987;19;20154;-78
2022/10/09 07:08:58;;;;;;;4.70;2.67;;;11.60;99.90;;;;;;7391714;19;20153;-77
2022/10/09 07:11:27;;;;;;;4.33;2.40;;;11.80;99.90;;;;;;7390736;19;20134;-77
2022/10/09 07:13:58;;;;;;;4.17;2.43;;;11.80;99.90;;;;;;7388715;19;20230;-78
2022/10/09 07:16:26;;;;;;;4.17;2.50;;;11.90;99.90;;;;;;7391835;19;20599;-77
2022/10/09 07:18:52;;;;;;;2.93;2.53;;;11.90;99.90;;;;;;7386992;19;20142;-77
2022/10/09 07:21:18;;;;;;;5.90;2.60;;;11.80;99.90;;;;;;7390396;19;20182;-78
2022/10/09 07:23:44;;;;;;;3.30;2.67;;;11.80;99.90;;;;;;7388702;19;20154;-77
2022/10/09 07:26:20;;;;;;;3.40;2.40;;;11.90;99.90;;;;;;7387431;19;20616;-76
2022/10/09 07:28:47;;;;;;;4.57;2.60;;;11.90;99.90;;;;;;7388293;19;20715;-81
2022/10/09 07:31:13;;;;;;;3.67;2.50;;;11.90;99.90;;;;;;7388949;19;20162;-79
2022/10/09 07:33:40;;;;;;;5.40;2.83;;;11.70;99.90;;;;;;7390778;19;20469;-79
2022/10/09 07:36:07;;;;;;;4.57;2.60;;;11.50;99.90;;;;;;7386760;19;20729;-77
2022/10/09 07:38:32;;;;;;;6.23;2.77;;;11.50;99.90;;;;;;7382556;19;20127;-79
2022/10/09 07:41:03;;;;;;;6.40;3.10;;;11.50;99.90;;;;;;7386365;19;20142;-79
2022/10/09 07:43:29;;;;;;;4.97;2.70;;;11.80;99.90;;;;;;7387924;19;20139;-78
2022/10/09 07:46:00;;;;;;;6.23;2.73;;;12.00;99.90;;;;;;7389320;19;20135;-78
2022/10/09 07:48:26;;;;;;;5.30;2.90;;;12.00;99.90;;;;;;7387442;19;20169;-77
2022/10/09 07:50:53;;;;;;;4.40;2.70;;;12.10;99.90;;;;;;7387996;19;20506;-79
2022/10/09 07:53:18;;;;;;;5.00;2.57;;;12.20;99.90;;;;;;7389387;19;20226;-78
2022/10/09 07:55:46;;;;;;;7.30;3.17;;;12.10;99.90;;;;;;7388318;19;21905;-78
2022/10/09 07:58:13;;;;;;;3.57;2.80;;;12.10;99.90;;;;;;7388851;19;20163;-77
2022/10/09 08:00:38;;;;;;;5.80;2.70;;;12.00;99.90;;;;;;7391118;19;20252;-78
2022/10/09 08:03:04;;;;;;;6.30;3.00;;;12.00;99.90;;;;;;7373653;19;20182;-79
2022/10/09 08:05:30;;;;;;;6.23;3.03;;;12.00;99.90;;;;;;7384995;19;20158;-77
2022/10/09 08:07:56;;;;;;;7.10;3.30;;;12.20;99.90;;;;;;7386068;19;20127;-77
2022/10/09 08:10:22;;;;;;;3.60;2.77;;;12.50;99.90;;;;;;7387845;19;20135;-79
2022/10/09 08:12:47;;;;;;;3.73;3.00;;;12.50;99.90;;;;;;7389361;19;20226;-78
2022/10/09 08:15:13;;;;;;;4.43;2.93;;;12.60;99.90;;;;;;7388688;19;20245;-78
2022/10/09 08:17:39;;;;;;;3.67;2.90;;;12.50;99.90;;;;;;7389116;19;20141;-79
2022/10/09 08:20:05;;;;;;;3.30;2.67;;;12.40;99.90;;;;;;7390669;19;20206;-79
2022/10/09 08:22:31;;;;;;;5.17;2.93;;;12.50;99.90;;;;;;7386950;19;20163;-79
2022/10/09 08:24:57;;;;;;;3.87;2.70;;;12.60;99.90;;;;;;7387398;19;20608;-78
2022/10/09 08:27:23;;;;;;;6.87;2.93;;;12.70;99.90;;;;;;7387894;19;20148;-78
2022/10/09 08:29:49;;;;;;;5.33;2.80;;;12.90;99.90;;;;;;7387410;19;20149;-78
2022/10/09 08:32:14;;;;;;;7.27;3.00;;;13.00;99.90;;;;;;7385518;19;20159;-78
2022/10/09 08:34:40;;;;;;;6.87;3.70;;;12.90;99.90;;;;;;7389115;19;20218;-79
2022/10/09 08:37:06;;;;;;;4.40;2.77;;;13.00;99.90;;;;;;7388147;19;20134;-78
2022/10/09 08:39:32;;;;;;;5.17;3.27;;;13.10;99.90;;;;;;7388984;19;20147;-79
2022/10/09 08:42:02;;;;;;;5.27;2.57;;;13.10;99.90;;;;;;7388212;19;20149;-79
2022/10/09 08:44:30;;;;;;;4.73;3.00;;;13.10;99.90;;;;;;7382689;19;20652;-78
2022/10/09 08:47:06;;;;;;;5.00;2.83;;;13.20;99.90;;;;;;7387734;19;20619;-78
2022/10/09 08:49:58;;;;;;;3.67;2.80;;;13.30;99.90;;;;;;7388268;19;20157;-80
2022/10/09 08:52:54;;;;;;;6.90;3.97;;;13.30;99.90;;;;;;7383977;19;20151;-78
2022/10/09 08:55:22;;;;;;;4.20;3.27;;;13.40;99.90;;;;;;7386365;19;20158;-80
2022/10/09 08:57:51;;;;;;;3.80;2.63;;;13.40;99.90;;;;;;7385394;19;20238;-79
2022/10/09 09:00:20;;;;;;;5.00;3.00;;;13.50;99.90;;;;;;7383654;19;20467;-77
2022/10/09 09:02:57;;;;;;;4.87;2.67;;;13.70;99.90;;;;;;7385506;19;20171;-79
2022/10/09 09:05:50;;;;;;;4.27;2.80;;;13.70;99.90;;;;;;7384596;19;20889;-78
2022/10/09 09:08:43;;;;;;;4.97;2.70;;;13.80;99.90;;;;;;7379709;19;20142;-79
2022/10/09 09:11:16;;;;;;;5.43;2.30;;;13.90;99.90;;;;;;7391289;19;20138;-77
2022/10/09 09:14:03;;;;;;;3.87;2.20;;;13.90;99.90;;;;;;7388859;19;20164;-75
2022/10/09 09:16:50;;;;;;;6.55;2.55;;;14.00;99.90;;;;;;7383217;19;20158;-77
2022/10/09 09:19:35;;;;;;;2.90;2.20;;;14.30;99.90;;;;;;7385421;19;20154;-79
2022/10/09 09:22:01;;;;;;;4.45;2.63;;;14.30;99.90;;;;;;7385698;19;20130;-80
2022/10/09 09:24:36;;;;;;;4.20;2.03;;;14.40;99.90;;;;;;7385043;19;20151;-78
2022/10/09 09:27:13;;;;;;;3.50;1.95;;;14.60;99.90;;;;;;7384115;19;20132;-79
2022/10/09 09:29:45;;;;;;;3.95;2.13;;;14.60;99.90;;;;;;7381948;19;20150;-78
2022/10/09 09:32:20;;;;;;;2.90;2.20;;;14.70;99.90;;;;;;7380419;19;20147;-78
2022/10/09 09:34:46;;;;;;;3.87;2.43;;;14.90;99.90;;;;;;7381344;19;20146;-75
2022/10/09 09:37:12;;;;;;;4.23;2.30;;;15.00;99.90;;;;;;7381024;19;20129;-78
2022/10/09 09:39:40;;;;;;;3.35;1.40;;;15.10;99.90;;;;;;7379803;19;20139;-79
2022/10/09 09:42:08;;;;;;;3.07;2.10;;;15.10;99.90;;;;;;7379883;19;20123;-78
2022/10/09 09:44:39;;;;;;;2.47;1.80;;;15.20;99.90;;;;;;7381705;19;20481;-78
2022/10/09 09:47:14;;;;;;;4.83;1.80;;;15.20;99.90;;;;;;7381774;19;20530;-77
2022/10/09 09:49:53;;;;;;;3.42;2.42;;;15.30;99.90;;;;;;7382548;19;20201;-75
2022/10/09 09:52:19;;;;;;;1.92;1.33;;;15.40;99.90;;;;;;7385541;19;20202;-78
2022/10/09 09:54:48;;;;;;;1.77;1.10;;;15.60;99.90;;;;;;7386577;19;20168;-78
2022/10/09 09:57:29;;;;;;;1.80;1.25;;;15.80;99.90;;;;;;7384193;19;20127;-79
2022/10/09 10:00:06;;;;;;;2.22;1.23;;;15.90;99.90;;;;;;7383097;19;20161;-79
2022/10/09 10:02:31;;;;;;;2.80;1.50;;;15.90;99.90;;;;;;7383092;19;20126;-78
2022/10/09 10:05:13;;;;;;;2.67;1.50;;;15.90;99.90;;;;;;7380865;19;20155;-80
2022/10/09 10:07:39;;;;;;;1.83;1.20;;;16.00;99.90;;;;;;7381438;19;20178;-78
2022/10/09 10:10:27;;;;;;;2.80;1.70;;;16.10;99.90;;;;;;7380216;19;20131;-78
2022/10/09 10:12:53;;;;;;;1.70;1.23;;;16.20;99.90;;;;;;7383360;19;20145;-79
2022/10/09 10:15:32;;;;;;;3.65;1.40;;;16.30;99.90;;;;;;7381362;19;20146;-78
2022/10/09 10:17:59;;;;;;;2.40;1.40;;;16.20;99.90;;;;;;7382786;19;20138;-78
2022/10/09 10:20:26;;;;;;;2.03;1.50;;;16.10;99.90;;;;;;7376977;19;20154;-81
2022/10/09 10:22:54;;;;;;;3.78;1.48;;;16.20;99.90;;;;;;7378690;19;20123;-78
2022/10/09 10:25:25;;;;;;;3.83;1.60;;;16.20;99.90;;;;;;7381699;19;20135;-79
2022/10/09 10:27:56;;;;;;;2.50;1.40;;;16.30;99.90;;;;;;7380287;19;20160;-77
2022/10/09 10:30:22;;;;;;;5.13;1.13;;;16.40;99.90;;;;;;7380722;19;20138;-76
2022/10/09 10:32:54;;;;;;;3.03;1.38;;;16.40;99.90;;;;;;7384835;19;20149;-77
2022/10/09 10:35:25;;;;;;;4.65;2.30;;;16.50;99.90;;;;;;7392389;19;20166;-76
2022/10/09 10:38:14;;;;;;;2.95;1.50;;;16.60;99.90;;;;;;7389114;19;20612;-78
2022/10/09 10:40:52;;;;;;;5.45;1.30;;;16.70;99.90;;;;;;7390173;19;20126;-76
2022/10/09 10:43:44;;;;;;;1.77;1.20;;;16.70;99.90;;;;;;7392813;19;20487;-75
2022/10/09 10:46:30;;;;;;;1.90;1.15;;;16.80;99.90;;;;;;7387690;19;20635;-78
2022/10/09 10:48:58;;;;;;;1.75;1.10;;;16.80;99.90;;;;;;7392792;19;20255;-75
2022/10/09 10:51:40;;;;;;;2.30;1.30;;;17.00;99.90;;;;;;7392669;19;20138;-75
2022/10/09 10:54:15;;;;;;;1.65;1.08;;;17.00;99.90;;;;;;7394223;19;20150;-74
2022/10/09 10:56:54;;;;;;;2.75;1.17;;;17.00;99.90;;;;;;7393054;19;20141;-74
2022/10/09 10:59:36;;;;;;;1.55;0.90;;;17.20;99.90;;;;;;7387492;19;20158;-75
2022/10/09 11:02:51;;;;;;;3.25;1.10;;;17.20;99.90;;;;;;7392849;19;20149;-75
2022/10/09 11:05:25;;;;;;;2.08;1.30;;;17.30;99.90;;;;;;7388657;19;20195;-74
2022/10/09 11:08:05;;;;;;;2.65;0.90;;;17.30;99.90;;;;;;7388698;19;20150;-75
2022/10/09 11:10:48;;;;;;;2.63;1.05;;;17.50;99.90;;;;;;7392408;19;20146;-74
2022/10/09 11:13:18;;;;;;;3.33;1.10;;;17.50;99.90;;;;;;7391666;19;20250;-76
2022/10/09 11:16:11;;;;;;;1.10;0.77;;;17.50;99.90;;;;;;7393908;19;20134;-75
2022/10/09 11:19:04;;;;;;;1.88;1.15;;;17.60;99.90;;;;;;7391093;19;20140;-76
2022/10/09 11:21:46;;;;;;;1.65;1.20;;;17.70;99.90;;;;;;7391538;19;20145;-76
2022/10/09 11:24:42;;;;;;;1.55;1.13;;;17.80;99.90;;;;;;7391755;19;20665;-76
2022/10/09 11:27:24;;;;;;;1.42;0.90;;;17.80;99.90;;;;;;7392712;19;20135;-73
2022/10/09 11:29:57;;;;;;;2.83;0.90;;;18.00;99.90;;;;;;7389747;19;20154;-75
2022/10/09 11:32:29;;;;;;;1.00;0.70;;;17.90;99.90;;;;;;7389570;19;20142;-75
2022/10/09 11:35:02;;;;;;;3.63;1.30;;;17.90;99.90;;;;;;7390725;19;20151;-74
2022/10/09 11:37:33;;;;;;;3.50;1.20;;;17.90;99.90;;;;;;7391258;19;20273;-75
2022/10/09 11:40:04;;;;;;;2.17;0.80;;;17.80;99.90;;;;;;7392619;19;20149;-74
2022/10/09 11:42:30;;;;;;;1.42;1.02;;;17.60;99.90;;;;;;7390212;19;20135;-74
2022/10/09 11:45:17;;;;;;;2.15;1.40;;;17.80;99.90;;;;;;7387866;19;20167;-76
2022/10/09 11:47:48;;;;;;;3.80;0.85;;;17.80;99.90;;;;;;7389212;19;20150;-74
2022/10/09 11:50:31;;;;;;;4.53;1.60;;;18.10;99.90;;;;;;7388317;19;20135;-75
2022/10/09 11:53:30;;;;;;;1.92;1.00;;;18.10;99.90;;;;;;7390320;19;20607;-73
2022/10/09 11:56:26;;;;;;;3.33;1.02;;;18.10;99.90;;;;;;7389071;19;20269;-74
2022/10/09 11:58:57;;;;;;;1.85;0.85;;;18.20;99.90;;;;;;7388936;19;20158;-75
2022/10/09 12:01:30;;;;;;;1.95;0.77;;;18.20;99.90;;;;;;7390828;19;20158;-75
2022/10/09 12:04:11;;;;;;;3.70;0.82;;;18.20;99.90;;;;;;7389227;19;20189;-76
2022/10/09 12:06:53;;;;;;;1.10;1.00;;;18.10;99.90;;;;;;7385693;19;20462;-75
2022/10/09 12:09:25;;;;;;;2.67;0.90;;;18.10;99.90;;;;;;7389582;19;20142;-75
2022/10/09 12:12:00;;;;;;;1.83;0.82;;;18.10;99.90;;;;;;7390827;19;20123;-74
2022/10/09 12:14:27;;;;;;;1.45;1.13;;;18.10;99.90;;;;;;7389006;19;20146;-75
2022/10/09 12:16:54;;;;;;;2.83;0.70;;;18.10;99.90;;;;;;7389027;19;20138;-74
2022/10/09 12:19:38;;;;;;;1.42;0.85;;;18.20;99.90;;;;;;7388565;19;20198;-74
2022/10/09 12:22:22;;;;;;;3.28;1.13;;;18.30;99.90;;;;;;7389837;19;20135;-74
2022/10/09 12:24:54;;;;;;;1.55;0.75;;;18.30;99.90;;;;;;7389216;19;20171;-74
2022/10/09 12:27:23;;;;;;;2.55;0.80;;;18.20;99.90;;;;;;7387733;19;20135;-75
2022/10/09 12:30:02;;;;;;;2.03;1.00;;;18.20;99.90;;;;;;7386853;19;20590;-74
2022/10/09 12:32:55;;;;;;;2.05;0.95;;;18.10;99.90;;;;;;7388349;19;20610;-75
2022/10/09 12:35:27;;;;;;;1.20;0.80;;;18.20;99.90;;;;;;7388478;19;20143;-74
2022/10/09 12:37:53;;;;;;;1.45;0.70;;;18.30;99.90;;;;;;7385701;19;20591;-73
2022/10/09 12:40:32;;;;;;;1.40;0.80;;;18.10;99.90;;;;;;7389671;19;20118;-74
2022/10/09 12:43:05;;;;;;;1.15;0.82;;;18.10;99.90;;;;;;7388899;19;20460;-74
2022/10/09 12:45:32;;;;;;;2.20;0.90;;;18.10;99.90;;;;;;7387466;19;20154;-75
2022/10/09 12:48:08;;;;;;;3.38;1.08;;;18.20;99.90;;;;;;7387264;19;20114;-76
2022/10/09 12:50:34;;;;;;;6.18;1.23;;;18.30;99.90;;;;;;7389779;19;20134;-74
2022/10/09 12:53:03;;;;;;;1.75;0.93;;;18.40;99.90;;;;;;7387099;19;20238;-74
2022/10/09 12:55:35;;;;;;;3.10;1.40;;;18.40;99.90;;;;;;7388330;19;20230;-75
2022/10/09 12:58:18;;;;;;;2.53;0.80;;;18.40;99.90;;;;;;7387455;19;20146;-75
2022/10/09 13:00:49;;;;;;;2.53;0.80;;;18.30;99.90;;;;;;7387976;19;20434;-75
2022/10/09 13:03:34;;;;;;;3.63;0.90;;;18.30;99.90;;;;;;7386535;19;20627;-74
2022/10/09 13:06:11;;;;;;;2.33;0.82;;;18.30;99.90;;;;;;7385180;19;20659;-75